Time;durP1;ratioP1;P1;durP2;ratioP2;P2;SDS_P1;SDS_P2;PMS_P1;PMS_P2;Temp;Humidity;BMP_temperature;BMP_pressure;BME280_temperature;BME280_humidity;BME280_pressure;Samples;Min_cycle;Max_cycle;Signal;HPM_P1;HPM_P2
2021/12/20 00:00:30;;;;;;;16.80;3.53;;;;;;;;;;5046425;28;19924;-68
2021/12/20 00:03:02;;;;;;;18.23;2.67;;;;;;;;;;5050848;28;20044;-66
2021/12/20 00:05:32;;;;;;;13.70;2.70;;;;;;;;;;5053715;28;20056;-66
2021/12/20 00:08:03;;;;;;;13.15;2.70;;;;;;;;;;5030450;28;20521;-65
2021/12/20 00:10:34;;;;;;;13.82;2.28;;;;;;;;;;5029849;28;20056;-65
2021/12/20 00:13:05;;;;;;;10.35;2.35;;;;;;;;;;4962247;28;20042;-67
2021/12/20 00:15:35;;;;;;;10.77;2.40;;;;;;;;;;5010681;28;20057;-63
2021/12/20 00:18:05;;;;;;;13.23;2.92;;;;;;;;;;4977531;28;20659;-64
2021/12/20 00:20:35;;;;;;;10.57;2.28;;;;;;;;;;5010568;28;20050;-65
2021/12/20 00:23:06;;;;;;;9.65;2.30;;;;;;;;;;5029730;28;20053;-65
2021/12/20 00:25:36;;;;;;;11.07;2.25;;;;;;;;;;4997095;28;20065;-65
2021/12/20 00:28:06;;;;;;;9.43;2.13;;;;;;;;;;4990672;28;20061;-66
2021/12/20 00:30:37;;;;;;;10.80;2.45;;;;;;;;;;4990554;28;20061;-64
2021/12/20 00:33:07;;;;;;;9.40;2.63;;;;;;;;;;4965056;28;20431;-64
2021/12/20 00:35:37;;;;;;;14.07;2.45;;;;;;;;;;4966079;28;20051;-64
2021/12/20 00:40:57;;;;;;;10.90;2.28;;;;;;;;;;4947822;29;20066;-64
2021/12/20 00:43:27;;;;;;;8.07;2.30;;;;;;;;;;4935556;29;20558;-64
2021/12/20 00:45:57;;;;;;;8.63;2.08;;;;;;;;;;4951269;29;20047;-65
2021/12/20 00:48:28;;;;;;;8.30;2.55;;;;;;;;;;4894265;29;20060;-64
2021/12/20 00:50:58;;;;;;;14.88;2.65;;;;;;;;;;4901915;29;20052;-72
2021/12/20 00:53:28;;;;;;;12.00;2.08;;;;;;;;;;4913142;29;20063;-64
2021/12/20 00:55:59;;;;;;;27.50;3.15;;;;;;;;;;4897475;29;20468;-64
2021/12/20 00:58:29;;;;;;;8.07;2.13;;;;;;;;;;4889113;29;20060;-65
2021/12/20 01:00:59;;;;;;;8.25;1.83;;;;;;;;;;4863214;29;20045;-66
2021/12/20 01:03:30;;;;;;;8.73;2.47;;;;;;;;;;4888870;29;20061;-64
2021/12/20 01:06:01;;;;;;;8.88;2.17;;;;;;;;;;4862030;29;20068;-66
2021/12/20 01:08:35;;;;;;;9.48;2.88;;;;;;;;;;4841124;29;20423;-65
2021/12/20 01:11:07;;;;;;;19.45;2.58;;;;;;;;;;4838906;29;20046;-64
2021/12/20 01:13:40;;;;;;;11.73;2.70;;;;;;;;;;4823932;29;20491;-65
2021/12/20 01:16:13;;;;;;;17.38;2.70;;;;;;;;;;4850418;29;20057;-67
2021/12/20 01:18:43;;;;;;;19.58;2.47;;;;;;;;;;4856492;29;20057;-65
2021/12/20 01:21:14;;;;;;;14.02;2.50;;;;;;;;;;4874706;29;20052;-67
2021/12/20 01:23:44;;;;;;;11.27;2.35;;;;;;;;;;4890201;29;20053;-64
2021/12/20 01:26:14;;;;;;;9.73;2.55;;;;;;;;;;4902158;29;20056;-66
2021/12/20 01:28:45;;;;;;;10.05;2.35;;;;;;;;;;4884150;29;20064;-65
2021/12/20 01:31:17;;;;;;;18.45;2.70;;;;;;;;;;4925731;29;20639;-65
2021/12/20 01:33:48;;;;;;;9.68;2.42;;;;;;;;;;4970061;28;20095;-65
2021/12/20 01:36:19;;;;;;;14.18;2.55;;;;;;;;;;4947727;28;20067;-67
2021/12/20 01:38:49;;;;;;;11.30;2.40;;;;;;;;;;4947830;29;20416;-65
2021/12/20 01:41:19;;;;;;;12.88;2.25;;;;;;;;;;4916205;29;20060;-65
2021/12/20 01:43:49;;;;;;;13.15;2.30;;;;;;;;;;4922666;29;20051;-70
2021/12/20 01:46:21;;;;;;;16.00;2.85;;;;;;;;;;4912512;29;20096;-65
2021/12/20 01:48:51;;;;;;;13.52;2.58;;;;;;;;;;4897372;29;20068;-65
2021/12/20 01:54:01;;;;;;;13.55;2.55;;;;;;;;;;4931386;29;20064;-65
2021/12/20 01:56:35;;;;;;;12.50;2.60;;;;;;;;;;4931696;29;20064;-64
2021/12/20 01:59:08;;;;;;;9.98;3.17;;;;;;;;;;4939637;29;20060;-65
2021/12/20 02:01:45;;;;;;;7.50;2.22;;;;;;;;;;4969720;28;20043;-65
2021/12/20 02:04:15;;;;;;;;;;;;;;;;;;4970293;28;20427;-63
2021/12/20 02:06:48;;;;;;;10.52;2.45;;;;;;;;;;4985574;28;20365;-67
2021/12/20 02:09:20;;;;;;;7.40;2.95;;;;;;;;;;4961226;28;20054;-64
2021/12/20 02:11:51;;;;;;;9.93;2.30;;;;;;;;;;4928770;28;20056;-65
2021/12/20 02:14:22;;;;;;;6.43;2.50;;;;;;;;;;4941435;29;20055;-66
2021/12/20 02:16:52;;;;;;;8.85;2.67;;;;;;;;;;4940620;29;20451;-67
2021/12/20 02:19:23;;;;;;;14.10;2.63;;;;;;;;;;4940585;29;20066;-67
2021/12/20 02:21:53;;;;;;;7.28;2.50;;;;;;;;;;4929091;28;20158;-65
2021/12/20 02:24:24;;;;;;;9.93;2.35;;;;;;;;;;4903357;29;20048;-65
2021/12/20 02:26:55;;;;;;;9.50;2.58;;;;;;;;;;4892716;29;20085;-65
2021/12/20 02:29:41;;;;;;;7.68;2.42;;;;;;;;;;4893310;29;20072;-65
2021/12/20 02:37:49;;;;;;;9.93;2.83;;;;;;;;;;4880837;29;20056;-66
2021/12/20 02:40:21;;;;;;;7.32;2.38;;;;;;;;;;4889650;29;20061;-66
2021/12/20 02:42:52;;;;;;;11.32;2.38;;;;;;;;;;4892514;29;20044;-67
2021/12/20 02:45:30;;;;;;;10.95;3.13;;;;;;;;;;4892828;29;20056;-65
2021/12/20 02:48:00;;;;;;;9.85;2.67;;;;;;;;;;4895208;29;20044;-65
2021/12/20 02:50:30;;;;;;;7.13;2.50;;;;;;;;;;4896401;29;20056;-68
2021/12/20 02:53:01;;;;;;;10.70;2.65;;;;;;;;;;4896690;29;20064;-67
2021/12/20 02:55:31;;;;;;;10.23;2.97;;;;;;;;;;4911851;29;20529;-65
2021/12/20 02:58:01;;;;;;;15.35;3.75;;;;;;;;;;4896304;29;20064;-67
2021/12/20 03:00:31;;;;;;;6.65;2.88;;;;;;;;;;4896209;29;20524;-65
2021/12/20 03:03:02;;;;;;;9.45;2.70;;;;;;;;;;4930203;29;20052;-65
2021/12/20 03:05:33;;;;;;;9.32;2.92;;;;;;;;;;4897923;29;20048;-65
2021/12/20 03:08:04;;;;;;;13.95;3.17;;;;;;;;;;4914946;29;20441;-66
2021/12/20 03:10:39;;;;;;;6.43;2.67;;;;;;;;;;4897021;29;20048;-66
2021/12/20 03:13:10;;;;;;;8.93;2.97;;;;;;;;;;4936246;29;20059;-65
2021/12/20 03:15:41;;;;;;;4.30;2.58;;;;;;;;;;4952744;29;20070;-64
2021/12/20 03:18:11;;;;;;;8.18;2.90;;;;;;;;;;4953327;29;20058;-65
2021/12/20 03:20:42;;;;;;;9.43;2.92;;;;;;;;;;4945921;29;20087;-66
2021/12/20 03:23:12;;;;;;;14.27;3.00;;;;;;;;;;4953305;29;20062;-65
2021/12/20 03:25:42;;;;;;;11.02;2.83;;;;;;;;;;4992472;28;20161;-66
2021/12/20 03:28:13;;;;;;;6.90;2.42;;;;;;;;;;5011270;28;20057;-66
2021/12/20 03:30:44;;;;;;;6.60;2.65;;;;;;;;;;5011650;28;20058;-64
2021/12/20 03:33:14;;;;;;;6.05;3.28;;;;;;;;;;5011468;28;20068;-64
2021/12/20 03:35:45;;;;;;;10.35;2.53;;;;;;;;;;4991266;28;20499;-71
2021/12/20 03:38:15;;;;;;;10.50;3.10;;;;;;;;;;4972610;28;20055;-66
2021/12/20 03:40:45;;;;;;;7.13;2.58;;;;;;;;;;4982639;28;20058;-64
2021/12/20 03:43:18;;;;;;;10.63;3.03;;;;;;;;;;4942898;29;20060;-64
2021/12/20 03:45:51;;;;;;;;;;;;;;;;;;4949949;29;20067;-64
2021/12/20 03:48:21;;;;;;;10.85;3.20;;;;;;;;;;4991474;28;20416;-65
2021/12/20 03:50:51;;;;;;;8.07;2.85;;;;;;;;;;4975662;28;20062;-65
2021/12/20 03:53:22;;;;;;;12.75;3.38;;;;;;;;;;4991217;28;20058;-66
2021/12/20 03:55:52;;;;;;;11.80;3.40;;;;;;;;;;4987925;28;20066;-66
2021/12/20 03:58:23;;;;;;;9.85;3.13;;;;;;;;;;4970940;28;20727;-65
2021/12/20 04:00:55;;;;;;;8.13;3.30;;;;;;;;;;4971804;28;20526;-67
2021/12/20 04:03:25;;;;;;;;;;;;;;;;;;4930079;29;20044;-65
2021/12/20 04:05:56;;;;;;;7.75;3.75;;;;;;;;;;4904855;29;19931;-64
2021/12/20 04:08:26;;;;;;;9.38;3.22;;;;;;;;;;4891494;29;20073;-65
2021/12/20 04:10:57;;;;;;;9.15;3.33;;;;;;;;;;4895255;29;20053;-67
2021/12/20 04:13:28;;;;;;;10.68;3.10;;;;;;;;;;4905210;29;20052;-66
2021/12/20 04:15:59;;;;;;;8.07;3.20;;;;;;;;;;4934820;29;20074;-64
2021/12/20 04:18:31;;;;;;;8.43;3.65;;;;;;;;;;4952198;29;20055;-65
2021/12/20 04:21:04;;;;;;;8.48;3.75;;;;;;;;;;4941147;29;20424;-65
2021/12/20 04:23:34;;;;;;;6.90;3.17;;;;;;;;;;4933004;29;20063;-65
2021/12/20 04:26:05;;;;;;;9.70;3.22;;;;;;;;;;4932847;29;20783;-65
2021/12/20 04:28:35;;;;;;;10.27;3.17;;;;;;;;;;4948441;29;20071;-65
2021/12/20 04:31:06;;;;;;;11.07;3.20;;;;;;;;;;4972308;28;20057;-67
2021/12/20 04:33:36;;;;;;;10.32;3.53;;;;;;;;;;4990589;28;20054;-65
2021/12/20 04:36:07;;;;;;;10.55;3.55;;;;;;;;;;5001030;28;20445;-67
2021/12/20 04:38:39;;;;;;;7.88;3.42;;;;;;;;;;5009983;28;20410;-65
2021/12/20 04:41:09;;;;;;;;;;;;;;;;;;4984185;28;20054;-64
2021/12/20 04:43:39;;;;;;;6.97;3.97;;;;;;;;;;4977257;28;20297;-64
2021/12/20 04:46:11;;;;;;;8.45;3.72;;;;;;;;;;5020450;28;20061;-67
2021/12/20 04:48:41;;;;;;;7.07;3.30;;;;;;;;;;5029769;28;20053;-65
2021/12/20 04:51:12;;;;;;;9.38;3.22;;;;;;;;;;5014045;28;20057;-66
2021/12/20 04:53:42;;;;;;;17.15;4.40;;;;;;;;;;5029726;28;20056;-66
2021/12/20 04:56:12;;;;;;;6.68;3.20;;;;;;;;;;5009738;28;20049;-65
2021/12/20 04:58:42;;;;;;;6.85;3.30;;;;;;;;;;4970386;28;20419;-65
2021/12/20 05:01:15;;;;;;;7.88;3.40;;;;;;;;;;4966833;28;20058;-66
2021/12/20 05:03:45;;;;;;;7.90;3.70;;;;;;;;;;4951363;28;20067;-66
2021/12/20 05:06:15;;;;;;;6.20;3.30;;;;;;;;;;4951370;29;20063;-65
2021/12/20 05:08:49;;;;;;;13.13;4.80;;;;;;;;;;4980350;28;20422;-65
2021/12/20 05:11:20;;;;;;;6.35;3.90;;;;;;;;;;4989985;28;20411;-65
2021/12/20 05:13:51;;;;;;;7.90;3.72;;;;;;;;;;4989550;28;20058;-65
2021/12/20 05:16:21;;;;;;;8.30;4.07;;;;;;;;;;4990163;28;20457;-64
2021/12/20 05:18:51;;;;;;;6.78;3.40;;;;;;;;;;4990459;28;20054;-65
2021/12/20 05:21:22;;;;;;;9.38;3.50;;;;;;;;;;4993578;28;20054;-65
2021/12/20 05:23:52;;;;;;;8.15;2.90;;;;;;;;;;5009551;28;20064;-65
2021/12/20 05:26:22;;;;;;;8.52;3.90;;;;;;;;;;4993208;28;20125;-69
2021/12/20 05:28:55;;;;;;;10.70;3.58;;;;;;;;;;5009115;28;20086;-68
2021/12/20 05:31:26;;;;;;;7.97;3.13;;;;;;;;;;5009467;28;20062;-65
2021/12/20 05:33:57;;;;;;;9.27;3.47;;;;;;;;;;5019872;28;20065;-64
2021/12/20 05:36:27;;;;;;;6.50;3.40;;;;;;;;;;5002045;28;20410;-65
2021/12/20 05:38:57;;;;;;;10.80;3.50;;;;;;;;;;4998529;28;20601;-68
2021/12/20 05:41:28;;;;;;;8.65;3.50;;;;;;;;;;4989951;28;20046;-65
2021/12/20 05:43:58;;;;;;;7.13;3.17;;;;;;;;;;4956891;28;20499;-65
2021/12/20 05:46:29;;;;;;;8.05;3.10;;;;;;;;;;4991102;28;20061;-65
2021/12/20 05:48:59;;;;;;;6.03;3.03;;;;;;;;;;4989057;28;20050;-65
2021/12/20 05:51:30;;;;;;;8.15;3.00;;;;;;;;;;4989374;28;20542;-65
2021/12/20 05:54:00;;;;;;;9.98;3.50;;;;;;;;;;4969462;28;20624;-65
2021/12/20 05:56:33;;;;;;;8.75;3.10;;;;;;;;;;4989544;28;20069;-65
2021/12/20 05:59:04;;;;;;;5.35;3.08;;;;;;;;;;5008848;28;20069;-65
2021/12/20 06:01:34;;;;;;;7.88;3.33;;;;;;;;;;5009368;28;20066;-65
2021/12/20 06:04:04;;;;;;;10.25;3.17;;;;;;;;;;5008967;28;20058;-65
2021/12/20 06:06:35;;;;;;;7.72;3.63;;;;;;;;;;5009002;28;20058;-68
2021/12/20 06:09:05;;;;;;;6.47;3.45;;;;;;;;;;5008783;28;20065;-64
2021/12/20 06:11:35;;;;;;;7.93;3.13;;;;;;;;;;4989005;28;20070;-65
2021/12/20 06:14:05;;;;;;;5.80;3.17;;;;;;;;;;4988831;28;20050;-65
2021/12/20 06:16:36;;;;;;;7.03;3.33;;;;;;;;;;4989314;28;20059;-66
2021/12/20 06:19:07;;;;;;;6.35;3.03;;;;;;;;;;4956659;28;20058;-65
2021/12/20 06:21:38;;;;;;;6.75;3.03;;;;;;;;;;4971200;28;20051;-67
2021/12/20 06:24:08;;;;;;;6.40;3.30;;;;;;;;;;4953953;28;20071;-65
2021/12/20 06:26:38;;;;;;;11.48;3.33;;;;;;;;;;4938110;29;20063;-65
2021/12/20 06:29:09;;;;;;;5.88;3.28;;;;;;;;;;4934737;29;20420;-67
2021/12/20 06:31:39;;;;;;;7.30;3.00;;;;;;;;;;4963418;28;20549;-66
2021/12/20 06:34:10;;;;;;;7.55;2.85;;;;;;;;;;4992908;28;20057;-65
2021/12/20 06:36:40;;;;;;;5.28;2.80;;;;;;;;;;4992705;28;20054;-67
2021/12/20 06:39:10;;;;;;;5.20;2.63;;;;;;;;;;4992970;28;20466;-65
2021/12/20 06:41:41;;;;;;;8.48;2.88;;;;;;;;;;4992811;28;20058;-66
2021/12/20 06:44:12;;;;;;;8.27;3.08;;;;;;;;;;4972875;28;20058;-65
2021/12/20 06:46:42;;;;;;;7.50;3.20;;;;;;;;;;4973303;28;20058;-66
2021/12/20 06:49:12;;;;;;;7.82;3.22;;;;;;;;;;4941402;28;20403;-65
2021/12/20 06:51:44;;;;;;;11.00;3.15;;;;;;;;;;4973117;28;20074;-65
2021/12/20 06:54:18;;;;;;;9.10;3.38;;;;;;;;;;4973201;28;20167;-65
2021/12/20 06:56:48;;;;;;;7.40;3.17;;;;;;;;;;4925578;28;20069;-66
2021/12/20 06:59:18;;;;;;;8.18;3.00;;;;;;;;;;4983553;28;20089;-65
2021/12/20 07:01:49;;;;;;;6.80;2.83;;;;;;;;;;4972553;28;20058;-65
2021/12/20 07:04:19;;;;;;;8.38;3.03;;;;;;;;;;4973103;28;20411;-66
2021/12/20 07:06:52;;;;;;;8.20;2.85;;;;;;;;;;4992777;28;20065;-66
2021/12/20 07:09:22;;;;;;;8.20;3.33;;;;;;;;;;5033079;28;20052;-66
2021/12/20 07:11:53;;;;;;;7.40;3.60;;;;;;;;;;5051301;28;20044;-65
2021/12/20 07:14:26;;;;;;;7.78;3.40;;;;;;;;;;5051665;28;20064;-65
2021/12/20 07:16:58;;;;;;;7.53;3.33;;;;;;;;;;5051623;28;20091;-66
2021/12/20 07:19:28;;;;;;;9.65;4.30;;;;;;;;;;5035187;28;20408;-66
2021/12/20 07:21:58;;;;;;;8.23;3.55;;;;;;;;;;5034515;28;20053;-66
2021/12/20 07:24:28;;;;;;;7.63;3.35;;;;;;;;;;5051548;28;20051;-65
2021/12/20 07:26:59;;;;;;;7.30;3.60;;;;;;;;;;5051134;28;20092;-68
2021/12/20 07:29:31;;;;;;;9.38;3.25;;;;;;;;;;5030892;28;20049;-64
2021/12/20 07:32:01;;;;;;;7.82;3.58;;;;;;;;;;5030988;28;20053;-66
2021/12/20 07:34:31;;;;;;;10.88;3.60;;;;;;;;;;5030380;28;20439;-65
2021/12/20 07:37:01;;;;;;;8.73;3.40;;;;;;;;;;5031018;28;20053;-66
2021/12/20 07:39:32;;;;;;;8.30;2.97;;;;;;;;;;5012544;28;20533;-67
2021/12/20 07:42:04;;;;;;;9.95;3.28;;;;;;;;;;4994590;28;20042;-67
2021/12/20 07:44:34;;;;;;;6.78;3.25;;;;;;;;;;4971993;28;20061;-66
2021/12/20 07:47:04;;;;;;;7.50;3.38;;;;;;;;;;4971955;28;20066;-65
2021/12/20 07:49:35;;;;;;;10.60;3.00;;;;;;;;;;4971847;28;20055;-66
2021/12/20 07:52:06;;;;;;;6.57;2.88;;;;;;;;;;4972021;28;20085;-66
2021/12/20 07:54:37;;;;;;;8.60;3.13;;;;;;;;;;4972152;28;20063;-65
2021/12/20 07:57:07;;;;;;;8.52;3.30;;;;;;;;;;4972221;28;20066;-66
2021/12/20 07:59:37;;;;;;;9.32;3.22;;;;;;;;;;4971867;28;20100;-66
2021/12/20 08:02:08;;;;;;;8.82;3.00;;;;;;;;;;4901368;29;20048;-68
2021/12/20 08:04:47;;;;;;;10.80;3.20;;;;;;;;;;4933412;29;20055;-66
2021/12/20 08:07:21;;;;;;;10.88;3.15;;;;;;;;;;4932764;29;20060;-65
2021/12/20 08:09:52;;;;;;;6.93;3.38;;;;;;;;;;4917942;29;20543;-66
2021/12/20 08:12:23;;;;;;;7.47;2.80;;;;;;;;;;4901774;29;20052;-65
2021/12/20 08:14:53;;;;;;;8.10;2.22;;;;;;;;;;4917621;29;20055;-63
2021/12/20 08:17:23;;;;;;;6.65;2.53;;;;;;;;;;4885892;29;20487;-64
2021/12/20 08:19:53;;;;;;;7.43;3.92;;;;;;;;;;4966522;28;20474;-65
2021/12/20 08:22:25;;;;;;;6.15;2.63;;;;;;;;;;5001730;28;20058;-67
2021/12/20 08:24:56;;;;;;;4.50;2.67;;;;;;;;;;5010572;28;20541;-67
2021/12/20 08:27:26;;;;;;;5.10;2.22;;;;;;;;;;5005578;28;20061;-66
2021/12/20 08:29:57;;;;;;;4.50;2.05;;;;;;;;;;5010078;28;20058;-67
2021/12/20 08:32:27;;;;;;;4.50;1.80;;;;;;;;;;4977413;28;20057;-64
2021/12/20 08:35:01;;;;;;;4.80;2.35;;;;;;;;;;5010339;28;20057;-67
2021/12/20 08:37:31;;;;;;;10.50;2.47;;;;;;;;;;4998449;28;20061;-66
2021/12/20 08:40:07;;;;;;;5.63;2.00;;;;;;;;;;5014692;28;20084;-69
2021/12/20 08:42:39;;;;;;;4.82;2.20;;;;;;;;;;5029318;28;20053;-68
2021/12/20 08:45:13;;;;;;;5.80;2.20;;;;;;;;;;5009530;28;20045;-67
2021/12/20 08:47:45;;;;;;;7.53;2.35;;;;;;;;;;5009862;28;20060;-66
2021/12/20 08:50:19;;;;;;;6.00;2.22;;;;;;;;;;5010316;28;20057;-67
2021/12/20 08:52:50;;;;;;;3.75;1.90;;;;;;;;;;5009658;28;20065;-67
2021/12/20 08:55:21;;;;;;;4.45;1.75;;;;;;;;;;5025786;28;20045;-68
2021/12/20 08:57:53;;;;;;;4.90;2.38;;;;;;;;;;4990070;28;20418;-64
2021/12/20 09:00:28;;;;;;;5.40;1.90;;;;;;;;;;4938751;29;20055;-65
2021/12/20 09:03:00;;;;;;;6.18;2.35;;;;;;;;;;4932178;29;20063;-65
2021/12/20 09:05:33;;;;;;;5.78;1.92;;;;;;;;;;4932304;29;20082;-66
2021/12/20 09:08:06;;;;;;;7.70;2.00;;;;;;;;;;4881069;29;20057;-66
2021/12/20 09:10:37;;;;;;;6.75;1.60;;;;;;;;;;4875684;29;20053;-65
2021/12/20 09:13:08;;;;;;;7.10;1.85;;;;;;;;;;4856772;29;20080;-66
2021/12/20 09:15:39;;;;;;;8.63;2.20;;;;;;;;;;4837657;29;20463;-70
2021/12/20 09:18:10;;;;;;;6.10;2.03;;;;;;;;;;4819521;29;20062;-69
2021/12/20 09:20:40;;;;;;;6.07;1.52;;;;;;;;;;4797458;29;20467;-65
2021/12/20 09:23:12;;;;;;;3.72;1.83;;;;;;;;;;4807463;29;20054;-67
2021/12/20 09:25:43;;;;;;;4.60;1.58;;;;;;;;;;4841090;29;20054;-65
2021/12/20 09:28:15;;;;;;;4.70;1.77;;;;;;;;;;4822756;29;20057;-64
2021/12/20 09:30:47;;;;;;;3.47;1.83;;;;;;;;;;4830229;29;20419;-66
2021/12/20 09:33:17;;;;;;;;;;;;;;;;;;4849321;29;20054;-64
2021/12/20 09:35:50;;;;;;;3.83;1.60;;;;;;;;;;4837092;29;19939;-65
2021/12/20 09:38:22;;;;;;;4.18;1.60;;;;;;;;;;4916806;29;20055;-66
2021/12/20 09:43:34;;;;;;;5.13;1.75;;;;;;;;;;4913636;29;20460;-64
2021/12/20 09:46:05;;;;;;;10.63;1.63;;;;;;;;;;4879962;29;20049;-66
2021/12/20 09:48:35;;;;;;;5.82;1.60;;;;;;;;;;4890905;29;20068;-64
2021/12/20 09:51:06;;;;;;;6.70;1.85;;;;;;;;;;4877235;29;20067;-65
2021/12/20 09:53:37;;;;;;;6.00;1.50;;;;;;;;;;4890149;29;20064;-64
2021/12/20 09:56:08;;;;;;;5.35;1.95;;;;;;;;;;4919340;29;20051;-64
2021/12/20 09:58:40;;;;;;;6.53;1.80;;;;;;;;;;4957856;28;20078;-63
2021/12/20 10:01:15;;;;;;;5.15;2.00;;;;;;;;;;4951934;28;20430;-65
2021/12/20 10:03:47;;;;;;;4.97;1.50;;;;;;;;;;4964619;28;20055;-63
2021/12/20 10:06:19;;;;;;;4.38;1.70;;;;;;;;;;4936668;29;20150;-65
2021/12/20 10:08:52;;;;;;;8.27;1.73;;;;;;;;;;4933890;29;20055;-63
2021/12/20 10:11:25;;;;;;;8.27;1.85;;;;;;;;;;4944160;28;20057;-66
2021/12/20 10:14:22;;;;;;;5.18;1.90;;;;;;;;;;4934472;29;20055;-64
2021/12/20 10:17:05;;;;;;;6.32;1.60;;;;;;;;;;4895779;29;20071;-65
2021/12/20 10:19:35;;;;;;;6.30;1.50;;;;;;;;;;4869510;29;20411;-65
2021/12/20 10:22:28;;;;;;;8.20;2.05;;;;;;;;;;4851251;29;20073;-63
2021/12/20 10:24:59;;;;;;;4.95;2.17;;;;;;;;;;4902039;29;20052;-64
2021/12/20 10:27:35;;;;;;;5.55;1.80;;;;;;;;;;4898956;29;20079;-66
2021/12/20 10:30:27;;;;;;;10.73;1.90;;;;;;;;;;4884129;29;20060;-66
2021/12/20 10:32:58;;;;;;;5.53;1.83;;;;;;;;;;4884093;29;20555;-64
2021/12/20 10:35:38;;;;;;;6.13;1.80;;;;;;;;;;4877326;29;20045;-65
2021/12/20 10:38:37;;;;;;;5.78;1.60;;;;;;;;;;4909183;29;20071;-67
2021/12/20 10:41:49;;;;;;;5.55;2.40;;;;;;;;;;4911802;29;20053;-63
2021/12/20 10:44:24;;;;;;;11.52;2.13;;;;;;;;;;4869422;29;20053;-63
2021/12/20 10:46:56;;;;;;;4.78;1.60;;;;;;;;;;4874003;29;21152;-62
2021/12/20 10:49:29;;;;;;;5.28;1.75;;;;;;;;;;4874168;29;20545;-65
2021/12/20 10:51:59;;;;;;;6.95;2.08;;;;;;;;;;4874348;29;20061;-62
2021/12/20 10:54:32;;;;;;;4.03;2.10;;;;;;;;;;4846018;29;20074;-62
2021/12/20 10:57:05;;;;;;;8.95;1.90;;;;;;;;;;4835175;29;20570;-62
2021/12/20 10:59:37;;;;;;;5.10;1.58;;;;;;;;;;4820139;29;20602;-63
2021/12/20 11:05:01;;;;;;;3.40;1.42;;;;;;;;;;4816708;29;19933;-62
2021/12/20 11:10:07;;;;;;;5.35;1.75;;;;;;;;;;4835528;29;20495;-68
2021/12/20 11:12:38;;;;;;;5.75;1.60;;;;;;;;;;4852196;29;20781;-62
2021/12/20 11:15:12;;;;;;;5.78;1.73;;;;;;;;;;4862843;29;20072;-63
2021/12/20 11:17:45;;;;;;;6.03;1.90;;;;;;;;;;4894975;29;20064;-65
2021/12/20 11:20:21;;;;;;;7.82;1.92;;;;;;;;;;4912803;29;20189;-64
2021/12/20 11:23:03;;;;;;;6.05;1.70;;;;;;;;;;4936239;28;20048;-63
2021/12/20 11:25:34;;;;;;;6.07;1.60;;;;;;;;;;4931467;29;20516;-64
2021/12/20 11:28:08;;;;;;;4.65;1.52;;;;;;;;;;4932345;29;20548;-62
2021/12/20 11:30:45;;;;;;;7.40;1.80;;;;;;;;;;4914694;29;20052;-63
2021/12/20 11:33:15;;;;;;;7.43;1.45;;;;;;;;;;4884171;29;20647;-63
2021/12/20 11:35:46;;;;;;;4.15;1.75;;;;;;;;;;4938004;28;20055;-64
2021/12/20 11:38:18;;;;;;;6.85;1.98;;;;;;;;;;4886626;29;20060;-63
2021/12/20 11:40:49;;;;;;;6.47;1.83;;;;;;;;;;4885258;29;20056;-64
2021/12/20 11:43:20;;;;;;;7.68;1.73;;;;;;;;;;4904575;29;20071;-65
2021/12/20 11:45:51;;;;;;;5.22;1.83;;;;;;;;;;4899148;29;20053;-63
2021/12/20 11:48:26;;;;;;;4.30;1.50;;;;;;;;;;4894488;29;20060;-63
2021/12/20 11:50:59;;;;;;;8.40;2.00;;;;;;;;;;4894639;29;20061;-63
2021/12/20 11:53:36;;;;;;;7.53;1.67;;;;;;;;;;4902452;29;20563;-61
2021/12/20 11:56:07;;;;;;;5.22;1.70;;;;;;;;;;4927362;29;20066;-68
2021/12/20 11:58:47;;;;;;;4.35;1.50;;;;;;;;;;4918122;29;20066;-64
2021/12/20 12:01:19;;;;;;;10.05;2.25;;;;;;;;;;4894206;29;20052;-65
2021/12/20 12:03:57;;;;;;;7.72;2.10;;;;;;;;;;4948618;28;20059;-64
2021/12/20 12:06:31;;;;;;;4.80;1.73;;;;;;;;;;4924009;29;20055;-66
2021/12/20 12:09:03;;;;;;;5.30;2.55;;;;;;;;;;4917279;29;20478;-64
2021/12/20 12:11:54;;;;;;;9.82;2.00;;;;;;;;;;4944366;29;20051;-68
2021/12/20 12:14:34;;;;;;;6.32;2.78;;;;;;;;;;4969789;28;20474;-64
2021/12/20 12:17:09;;;;;;;7.35;1.85;;;;;;;;;;5008263;28;20054;-64
2021/12/20 12:19:47;;;;;;;5.53;1.60;;;;;;;;;;4970427;28;20531;-62
2021/12/20 12:22:41;;;;;;;6.05;2.15;;;;;;;;;;4971903;28;20066;-63
2021/12/20 12:25:36;;;;;;;7.78;2.20;;;;;;;;;;4932963;29;20054;-62
2021/12/20 12:28:07;;;;;;;8.52;1.42;;;;;;;;;;4901107;29;20055;-67
2021/12/20 12:30:38;;;;;;;6.57;1.65;;;;;;;;;;4932924;29;20515;-63
2021/12/20 12:33:15;;;;;;;6.05;1.83;;;;;;;;;;4932781;28;20055;-63
2021/12/20 12:35:51;;;;;;;4.03;1.55;;;;;;;;;;4916790;28;20055;-62
2021/12/20 12:38:35;;;;;;;4.65;1.30;;;;;;;;;;4932668;28;20285;-63
2021/12/20 12:41:07;;;;;;;9.32;1.90;;;;;;;;;;4907643;29;20067;-62
2021/12/20 12:43:52;;;;;;;6.85;1.42;;;;;;;;;;4938423;29;20508;-63
2021/12/20 12:46:41;;;;;;;7.20;1.73;;;;;;;;;;4951807;29;20051;-63
2021/12/20 12:49:29;;;;;;;11.52;1.90;;;;;;;;;;4935981;29;20060;-63
2021/12/20 12:52:11;;;;;;;10.50;2.08;;;;;;;;;;4934291;28;20074;-62
2021/12/20 12:55:07;;;;;;;9.07;4.57;;;;;;;;;;4950941;29;20059;-61
2021/12/20 12:57:42;;;;;;;4.95;1.70;;;;;;;;;;4963943;28;20059;-62
2021/12/20 13:00:35;;;;;;;7.70;1.55;;;;;;;;;;4970346;28;20514;-61
2021/12/20 13:03:13;;;;;;;4.95;2.20;;;;;;;;;;4988279;28;20053;-63
2021/12/20 13:05:45;;;;;;;7.82;1.65;;;;;;;;;;4970739;28;20055;-62
2021/12/20 13:08:15;;;;;;;7.25;2.30;;;;;;;;;;4954592;28;20399;-68
2021/12/20 13:10:51;;;;;;;10.80;2.03;;;;;;;;;;4912431;29;20499;-62
2021/12/20 13:13:29;;;;;;;5.63;1.60;;;;;;;;;;4881508;29;20052;-67
2021/12/20 13:16:05;;;;;;;6.57;2.03;;;;;;;;;;4901651;29;20064;-63
2021/12/20 13:18:39;;;;;;;5.63;2.13;;;;;;;;;;4930187;28;20423;-65
2021/12/20 13:21:15;;;;;;;4.93;1.42;;;;;;;;;;4934217;28;20048;-62
2021/12/20 13:23:48;;;;;;;5.25;2.10;;;;;;;;;;4949760;28;20067;-63
2021/12/20 13:26:21;;;;;;;5.75;1.65;;;;;;;;;;4935723;28;20516;-68
2021/12/20 13:28:55;;;;;;;8.93;2.20;;;;;;;;;;4896088;29;20048;-64
2021/12/20 13:31:26;;;;;;;12.23;2.40;;;;;;;;;;4898843;29;20456;-63
2021/12/20 13:33:59;;;;;;;;;;;;;;;;;;4934698;29;20071;-64
2021/12/20 13:36:34;;;;;;;3.85;1.70;;;;;;;;;;4915853;29;19946;-62
2021/12/20 13:39:09;;;;;;;7.72;1.80;;;;;;;;;;4853892;29;20194;-66
2021/12/20 13:41:39;;;;;;;4.03;1.77;;;;;;;;;;4874788;29;20051;-62
2021/12/20 13:44:15;;;;;;;6.20;2.20;;;;;;;;;;4937060;28;20714;-64
2021/12/20 13:46:50;;;;;;;6.88;1.80;;;;;;;;;;4933816;28;20058;-62
2021/12/20 13:49:22;;;;;;;6.07;1.75;;;;;;;;;;4953469;28;20058;-63
2021/12/20 13:52:12;;;;;;;5.60;1.80;;;;;;;;;;4969824;28;20058;-62
2021/12/20 13:54:45;;;;;;;8.05;1.77;;;;;;;;;;4969217;28;20058;-63
2021/12/20 13:57:25;;;;;;;6.35;2.33;;;;;;;;;;4934292;28;20419;-63
2021/12/20 14:00:03;;;;;;;3.97;1.75;;;;;;;;;;4965662;28;20059;-62
2021/12/20 14:02:45;;;;;;;8.02;2.88;;;;;;;;;;4948965;28;20058;-63
2021/12/20 14:05:24;;;;;;;6.15;2.35;;;;;;;;;;4942512;28;20056;-63
2021/12/20 14:08:01;;;;;;;6.38;1.45;;;;;;;;;;4951690;28;20062;-63
2021/12/20 14:10:34;;;;;;;5.10;1.67;;;;;;;;;;4954146;28;20043;-62
2021/12/20 14:13:07;;;;;;;6.10;1.55;;;;;;;;;;4987989;28;20054;-66
2021/12/20 14:15:41;;;;;;;6.78;1.90;;;;;;;;;;4986013;28;20108;-65
2021/12/20 14:18:16;;;;;;;5.75;2.10;;;;;;;;;;4988570;28;20069;-62
2021/12/20 14:20:53;;;;;;;11.25;5.18;;;;;;;;;;4995579;28;20054;-62
2021/12/20 14:23:50;;;;;;;7.05;1.85;;;;;;;;;;4994359;28;20545;-63
2021/12/20 14:26:25;;;;;;;7.93;2.20;;;;;;;;;;4954156;28;20636;-63
2021/12/20 14:29:03;;;;;;;5.50;1.77;;;;;;;;;;4918367;28;20058;-66
2021/12/20 14:31:50;;;;;;;9.75;1.73;;;;;;;;;;4937088;29;20052;-63
2021/12/20 14:34:33;;;;;;;4.25;2.00;;;;;;;;;;4940791;29;20067;-63
2021/12/20 14:37:12;;;;;;;5.30;1.63;;;;;;;;;;4917805;29;20059;-62
2021/12/20 14:39:44;;;;;;;6.03;1.90;;;;;;;;;;4947474;28;20058;-63
2021/12/20 14:42:19;;;;;;;7.55;1.58;;;;;;;;;;4954714;28;20051;-64
2021/12/20 14:44:57;;;;;;;6.93;1.90;;;;;;;;;;4953508;28;20055;-63
2021/12/20 14:47:40;;;;;;;6.05;1.70;;;;;;;;;;4961923;28;20101;-64
2021/12/20 14:50:27;;;;;;;6.63;1.90;;;;;;;;;;4991114;28;20054;-64
2021/12/20 14:52:57;;;;;;;6.32;1.80;;;;;;;;;;4991483;28;20062;-65
2021/12/20 14:55:34;;;;;;;6.28;1.70;;;;;;;;;;4991093;28;20058;-67
2021/12/20 14:58:04;;;;;;;8.57;1.77;;;;;;;;;;4990976;28;20069;-66
2021/12/20 15:00:36;;;;;;;5.53;1.52;;;;;;;;;;4942927;28;20059;-67
2021/12/20 15:03:08;;;;;;;4.25;1.42;;;;;;;;;;4998597;28;20057;-67
2021/12/20 15:05:38;;;;;;;3.72;1.77;;;;;;;;;;4993725;28;20062;-66
2021/12/20 15:08:17;;;;;;;5.47;1.50;;;;;;;;;;5010002;28;20058;-63
2021/12/20 15:10:50;;;;;;;5.88;1.52;;;;;;;;;;5010596;28;20049;-62
2021/12/20 15:13:21;;;;;;;8.43;1.80;;;;;;;;;;4973604;28;20080;-66
2021/12/20 15:15:51;;;;;;;4.07;1.75;;;;;;;;;;5010824;28;20430;-65
2021/12/20 15:18:21;;;;;;;4.75;1.40;;;;;;;;;;5017155;28;20733;-63
2021/12/20 15:20:51;;;;;;;7.28;1.55;;;;;;;;;;4970619;28;20068;-64
2021/12/20 15:23:21;;;;;;;6.50;1.65;;;;;;;;;;5012214;28;20062;-69
2021/12/20 15:25:52;;;;;;;4.25;1.40;;;;;;;;;;5006326;28;20053;-69
2021/12/20 15:28:22;;;;;;;6.63;1.75;;;;;;;;;;5042523;28;20049;-65
2021/12/20 15:30:52;;;;;;;4.88;1.77;;;;;;;;;;5050058;28;20558;-64
2021/12/20 15:33:25;;;;;;;8.73;1.50;;;;;;;;;;5036934;28;20056;-63
2021/12/20 15:35:56;;;;;;;3.92;1.60;;;;;;;;;;5069585;28;20052;-63